sensor_id;sensor_type;location;lat;lon;timestamp;temperature;humidity
67502;SHT30;54349;52.528;19.760;2023-07-29T01:17:32;20.84;59.01
67502;SHT30;54349;52.528;19.760;2023-07-29T01:23:28;20.10;60.67
67502;SHT30;54349;52.528;19.760;2023-07-29T03:17:28;20.76;58.98
67502;SHT30;54349;52.528;19.760;2023-07-29T03:19:59;20.88;57.93
67502;SHT30;54349;52.528;19.760;2023-07-29T03:22:30;20.46;58.01
67502;SHT30;54349;52.528;19.760;2023-07-29T03:25:04;20.45;59.21
67502;SHT30;54349;52.528;19.760;2023-07-29T03:27:34;20.67;59.02
67502;SHT30;54349;52.528;19.760;2023-07-29T03:30:21;20.88;58.68
67502;SHT30;54349;52.528;19.760;2023-07-29T03:33:04;21.00;57.54
67502;SHT30;54349;52.528;19.760;2023-07-29T04:08:16;19.94;59.19
67502;SHT30;54349;52.528;19.760;2023-07-29T04:10:46;20.09;59.68
67502;SHT30;54349;52.528;19.760;2023-07-29T04:13:17;20.35;59.36
67502;SHT30;54349;52.528;19.760;2023-07-29T04:16:01;20.60;58.93
67502;SHT30;54349;52.528;19.760;2023-07-29T04:18:43;20.71;57.76
67502;SHT30;54349;52.528;19.760;2023-07-29T04:21:18;20.10;57.71
67502;SHT30;54349;52.528;19.760;2023-07-29T04:24:00;19.88;59.83
67502;SHT30;54349;52.528;19.760;2023-07-29T08:17:32;20.39;61.34
67502;SHT30;54349;52.528;19.760;2023-07-29T08:20:00;20.66;60.80
67502;SHT30;54349;52.528;19.760;2023-07-29T08:22:31;20.88;60.53
67502;SHT30;54349;52.528;19.760;2023-07-29T08:25:02;20.69;60.27
67502;SHT30;54349;52.528;19.760;2023-07-29T08:27:32;20.18;61.44
67502;SHT30;54349;52.528;19.760;2023-07-29T08:30:02;20.25;61.67
67502;SHT30;54349;52.528;19.760;2023-07-29T08:32:31;20.52;61.16
67502;SHT30;54349;52.528;19.760;2023-07-29T09:22:58;20.73;61.31
67502;SHT30;54349;52.528;19.760;2023-07-29T09:25:30;20.95;61.42
67502;SHT30;54349;52.528;19.760;2023-07-29T09:28:08;20.67;62.37
67502;SHT30;54349;52.528;19.760;2023-07-29T09:30:40;20.16;62.97
67502;SHT30;54349;52.528;19.760;2023-07-29T09:36:56;20.23;62.92
67502;SHT30;54349;52.528;19.760;2023-07-29T09:39:31;20.54;62.07
67502;SHT30;54349;52.528;19.760;2023-07-29T13:39:30;17.86;63.94
67502;SHT30;54349;52.528;19.760;2023-07-29T13:42:13;17.94;65.04
67502;SHT30;54349;52.528;19.760;2023-07-29T13:44:41;18.55;65.09
67502;SHT30;54349;52.528;19.760;2023-07-29T13:47:09;19.20;64.06
67502;SHT30;54349;52.528;19.760;2023-07-29T13:49:43;19.74;63.17
67502;SHT30;54349;52.528;19.760;2023-07-29T13:52:19;20.24;63.48
67502;SHT30;54349;52.528;19.760;2023-07-29T13:54:48;20.39;66.94
67502;SHT30;54349;52.528;19.760;2023-07-29T14:02:57;19.83;67.65
67502;SHT30;54349;52.528;19.760;2023-07-29T14:05:26;19.75;67.89
67502;SHT30;54349;52.528;19.760;2023-07-29T14:08:00;19.71;68.15
67502;SHT30;54349;52.528;19.760;2023-07-29T14:10:29;19.69;68.16
67502;SHT30;54349;52.528;19.760;2023-07-29T14:12:58;19.66;68.15
67502;SHT30;54349;52.528;19.760;2023-07-29T14:18:30;19.59;68.56
67502;SHT30;54349;52.528;19.760;2023-07-29T15:38:47;18.36;65.16
67502;SHT30;54349;52.528;19.760;2023-07-29T15:41:15;18.33;65.00
67502;SHT30;54349;52.528;19.760;2023-07-29T15:44:17;18.31;64.75
67502;SHT30;54349;52.528;19.760;2023-07-29T15:46:46;18.17;62.70
67502;SHT30;54349;52.528;19.760;2023-07-29T15:49:15;18.28;65.11
67502;SHT30;54349;52.528;19.760;2023-07-29T15:52:17;19.01;65.09
67502;SHT30;54349;52.528;19.760;2023-07-29T15:54:46;19.60;64.24
67502;SHT30;54349;52.528;19.760;2023-07-29T17:39:32;18.65;65.18
67502;SHT30;54349;52.528;19.760;2023-07-29T17:42:21;19.20;64.49
67502;SHT30;54349;52.528;19.760;2023-07-29T17:44:50;19.65;63.68
67502;SHT30;54349;52.528;19.760;2023-07-29T17:47:18;20.02;62.98
67502;SHT30;54349;52.528;19.760;2023-07-29T17:49:49;20.22;65.52
67502;SHT30;54349;52.528;19.760;2023-07-29T17:52:18;19.99;65.43
67502;SHT30;54349;52.528;19.760;2023-07-29T17:54:46;19.71;65.34
67502;SHT30;54349;52.528;19.760;2023-07-29T21:43:07;19.71;64.01
67502;SHT30;54349;52.528;19.760;2023-07-29T21:48:45;20.40;62.31
67502;SHT30;54349;52.528;19.760;2023-07-29T21:51:14;20.10;61.41
67502;SHT30;54349;52.528;19.760;2023-07-29T21:56:46;19.38;63.94
67502;SHT30;54349;52.528;19.760;2023-07-29T23:42:47;20.07;62.16
67502;SHT30;54349;52.528;19.760;2023-07-29T23:45:15;20.18;63.15
67502;SHT30;54349;52.528;19.760;2023-07-29T23:47:48;20.50;62.84
67502;SHT30;54349;52.528;19.760;2023-07-29T23:50:34;20.82;62.27
67502;SHT30;54349;52.528;19.760;2023-07-29T23:53:06;21.00;61.26
